Pemaquid Point Lighthouse, ME

43° 50' 13"N, 69° 30' 22"W, Elevation 40 ft.
Eastern Time

Hourly observations for the last 72 hours

Date Time Temperature (°F) Humi-
dity

(%)
Wind
(mph)
Pressure Rain (in) Sun
(W/m2)
UV ET
(in)
Air Dew 6 Hour 1 Hr 3 Hr 6 Hr Day
Alt
(in)
Sea
Level

(mb)
Max Min
29 03:00 34.5 33.5 96 N 5 G 8 29.95 1014.3 0.03 0.18 0 0.0 0.000
29 02:00 34.7 33.7 36.1 34.6 96 NNE 5 G 10 29.96 1014.5 0.07 0.21 0.29 0.15 0 0.0 0.000
29 01:00 34.8 33.8 96 N 4 G 8 29.98 1015.2 0.08 0.08 0 0.0 0.000
29 00:00 35.1 34.1 96 NNE 4 G 8 29.98 1015.3 0.06 0.16 0 0.0 0.025
28 23:00 35.3 34.3 96 NNE 5 G 9 29.98 1015.3 0.08 0.08 0.10 0 0.0 0.025
28 22:00 35.7 34.4 95 NE 7 G 10 29.98 1015.3 0.02 0 0.0 0.025
28 21:00 36.0 34.7 95 NE 8 G 10 29.99 1015.6 0.02 0 0.0 0.025
28 20:00 35.9 34.3 36.7 35.7 94 ENE 10 G 11 29.98 1015.3 0.01 0.01 0.01 0.02 0 0.0 0.025
28 19:00 35.8 34.2 94 E 10 G 11 29.99 1015.4 0.01 0 0.0 0.025
28 18:00 35.8 34.2 94 E 10 G 13 29.99 1015.4 0.01 19 0.0 0.024
28 17:00 35.9 34.1 93 ENE 10 G 12 29.99 1015.6 0.01 54 0.0 0.023
28 16:00 36.2 34.1 92 ENE 6 G 11 29.99 1015.7 0.01 90 0.5 0.021
28 15:00 36.4 34.0 91 ENE 7 G 10 30.00 1015.8 0.01 197 1.2 0.018
28 14:00 36.6 34.2 37.4 33.2 91 ENE 8 G 10 30.00 1016.1 0.01 0.01 0.01 422 2.5 0.013
28 13:00 37.1 35.0 92 ENE 10 G 12 30.02 1016.6 0.01 0.01 394 2.7 0.008
28 12:00 35.9 34.1 93 E 6 G 8 30.04 1017.2 0.00 188 1.4 0.006
28 11:00 35.5 33.9 94 E 4 G 9 30.05 1017.5 0.00 190 1.3 0.004
28 10:00 34.4 32.9 94 NE 6 G 9 30.05 1017.5 0.00 111 0.7 0.002
28 09:00 34.0 32.5 94 NE 8 G 11 30.02 1016.7 0.00 90 0.5 0.001
28 08:00 33.2 32.2 33.2 31.9 96 NNE 3 G 6 30.02 1016.8 0.00 60 0.0 0.000
28 07:00 32.3 31.3 96 NNE 6 G 9 30.00 1016.1 0.00 23 0.0 0.000
28 06:00 32.1 31.1 96 N 6 G 12 30.00 1016.0 0.00 0 0.0 0.000
28 05:00 32.4 31.1 95 N 2 G 6 30.00 1015.9 0.00 0 0.0 0.000
28 04:00 32.4 31.1 95 NNW 5 G 10 30.00 1016.1 0.00 0 0.0 0.000
28 03:00 32.6 31.3 95 N 4 G 10 30.00 1016.1 0.00 0 0.0 0.000
28 02:00 32.6 31.3 34.4 32.6 95 NNW 5 G 10 30.01 1016.2 0.00 0 0.0 0.000
28 01:00 33.0 31.7 95 NNW 5 G 10 29.99 1015.7 0.00 0 0.0 0.000
28 00:00 33.5 32.2 95 N 6 G 10 30.00 1015.8 0.36 0 0.0 0.030
27 23:00 33.7 32.4 95 N 9 G 15 30.00 1016.0 0.36 0 0.0 0.030
27 22:00 33.9 32.6 95 NNE 11 G 18 30.01 1016.5 0.36 0 0.0 0.030
27 21:00 34.3 33.0 95 NNE 11 G 20 30.01 1016.3 0.36 0 0.0 0.030
27 20:00 34.3 33.0 36.2 34.3 95 NE 16 G 23 30.02 1016.5 0.01 0.11 0.36 0 0.0 0.030
27 19:00 34.8 33.3 94 NE 22 G 31 30.01 1016.2 0.36 0 0.0 0.029
27 18:00 34.8 33.3 94 NE 23 G 31 30.02 1016.8 0.01 0.36 19 0.0 0.028
27 17:00 35.2 33.6 94 ENE 23 G 30 30.05 1017.5 0.01 0.10 0.35 60 0.0 0.026
27 16:00 36.1 34.5 94 ENE 21 G 26 30.09 1019.1 0.06 0.34 105 0.6 0.024
27 15:00 35.5 33.4 92 ENE 20 G 24 30.12 1020.0 0.03 0.28 86 0.7 0.022
27 14:00 35.9 33.5 36.0 35.0 91 E 22 G 29 30.15 1020.9 0.09 0.22 0.23 0.25 63 0.0 0.020
27 13:00 35.9 33.3 90 E 23 G 26 30.18 1022.1 0.08 0.16 88 0.7 0.018
27 12:00 35.6 33.2 91 E 21 G 25 30.22 1023.3 0.05 0.08 100 0.8 0.016
27 11:00 35.4 32.5 89 E 20 G 22 30.24 1024.0 0.01 0.01 0.03 83 0.6 0.014
27 10:00 35.0 31.2 86 ESE 20 G 24 30.26 1024.7 0.02 62 0.5 0.012
27 09:00 35.2 29.3 79 ESE 20 G 23 30.27 1025.2 0.02 58 0.0 0.010
27 08:00 35.5 29.6 35.6 34.0 79 ESE 19 G 22 30.29 1025.6 0.01 0.02 0.02 14 0.0 0.008
27 07:00 35.1 29.2 79 ESE 16 G 20 30.30 1026.0 0.01 0.02 9 0.0 0.006
27 06:00 34.8 29.3 80 ESE 16 G 18 30.31 1026.5 0.01 0 0.0 0.005
27 05:00 35.0 29.2 79 ESE 12 G 14 30.34 1027.4 0.01 0.01 0 0.0 0.004
27 04:00 34.7 28.5 78 SE 9 G 12 30.35 1027.9 0.01 0 0.0 0.003
27 03:00 34.3 27.5 76 SE 9 G 11 30.37 1028.6 0.01 0.01 0 0.0 0.002
27 02:00 34.2 26.8 34.6 34.0 74 S 6 G 9 30.39 1029.2 0.00 0 0.0 0.001
27 01:00 34.3 25.5 70 S 7 G 9 30.41 1029.9 0.00 0 0.0 0.000
27 00:00 34.5 25.0 68 S 9 G 11 30.42 1030.1 0.00 0 0.0 0.110
26 23:00 34.3 24.8 68 SSE 7 G 12 30.43 1030.4 0.00 0 0.0 0.108
26 22:00 34.2 24.7 68 S 9 G 11 30.45 1031.2 0.00 0 0.0 0.106
26 21:00 34.2 24.4 67 S 10 G 13 30.47 1031.7 0.00 0 0.0 0.104
26 20:00 34.2 23.3 36.1 33.1 64 SSW 10 G 13 30.48 1032.1 0.00 0 0.0 0.102
26 19:00 33.6 21.6 61 SSW 11 G 12 30.49 1032.7 0.00 0 0.0 0.100
26 18:00 33.5 21.1 60 SSW 9 G 13 30.50 1032.9 0.00 77 0.0 0.096
26 17:00 34.4 20.3 56 SSE 8 G 12 30.49 1032.5 0.00 334 0.7 0.088
26 16:00 34.0 16.8 49 S 6 G 12 30.49 1032.6 0.00 619 1.9 0.077
26 15:00 34.1 20.0 56 SSE 9 G 12 30.52 1033.6 0.00 773 3.1 0.064
26 14:00 34.8 17.6 35.8 28.0 49 SE 10 G 14 30.53 1034.0 0.00 856 4.3 0.051
26 13:00 34.6 17.4 49 ESE 9 G 10 30.56 1034.8 0.00 896 5.0 0.037
26 12:00 32.4 17.6 54 E 11 G 13 30.57 1035.4 0.00 860 4.7 0.026
26 11:00 31.0 16.3 54 E 11 G 14 30.58 1035.6 0.00 91 2.0 0.023
26 10:00 29.3 10.1 44 NE 10 G 15 30.57 1035.4 0.00 42 0.0 0.020
26 09:00 28.6 8.9 43 NE 9 G 16 30.57 1035.3 0.00 37 0.0 0.017
26 08:00 28.3 9.2 31.4 26.4 44 NNE 10 G 15 30.56 1034.9 0.00 30 0.0 0.014
26 07:00 26.9 8.9 46 N 8 G 14 30.54 1034.3 0.00 18 0.0 0.012
26 06:00 27.1 7.0 42 N 6 G 11 30.52 1033.6 0.00 0 0.0 0.010
26 05:00 28.2 8.6 43 N 4 G 10 30.50 1033.0 0.00 0 0.0 0.008
26 04:00 28.9 9.7 44 N 5 G 8 30.47 1031.7 0.00 0 0.0 0.006

Data generated by WxSolution Version 1.9.0.6, Build 2017.01.14.